^^
Station Historical Data
Daily Summary for January 5, 2017 Units:  Both    English   Metric
« Previous Day
Next Day »
Daily Weekly Monthly Yearly Custom
  High: Low: Average:
Temperature: 83.5 °F /  28.6 °C 65.1 °F /  18.4 °C 72.8 °F /  22.7 °C
Dew Point: 61.2 °F /  16.2 °C 52.0 °F /  11.1 °C 54.8 °F /  12.7 °C
Humidity: 71% 34% 54%
Wind Speed: 8.1mph /  13km/h - 1.4mph /  2.3km/h
Wind Gust: 11.0mph /  17.7km/h - -
Wind- - South
Pressure: 29.65 in /  1003.9 hPa 29.48 in /  998.2 hPa -
Precipitation: 0.00 in /  0 mm    
Historical Graphs
 
 
Tabular Data for January 5, 2017
Time Temperature Dew Point Pressure Wind Wind Speed Wind Gust Humidity Rainfall Rate (Hourly) solar Conditions
00:02 70.9 °F /  21.6 °C 55.8 °F /  13.2 °C 29.62in /  1002.9hPa Calm   1.0mph /  1.6km/h 59% 0.00in /  0mm 0.0 W/m2
00:08 70.9 °F /  21.6 °C 55.8 °F /  13.2 °C 29.62in /  1002.9hPa SSW 2.0mph /  3.2km/h 2.0mph /  3.2km/h 59% 0.00in /  0mm 0.0 W/m2
00:15 70.7 °F /  21.5 °C 55.6 °F /  13.1 °C 29.62in /  1002.9hPa Calm   1.0mph /  1.6km/h 59% 0.00in /  0mm 0.0 W/m2
00:21 70.7 °F /  21.5 °C 55.2 °F /  12.9 °C 29.62in /  1002.9hPa South 2.0mph /  3.2km/h 4.0mph /  6.4km/h 58% 0.00in /  0mm 0.0 W/m2
00:27 70.7 °F /  21.5 °C 55.6 °F /  13.1 °C 29.62in /  1002.9hPa SSW 2.0mph /  3.2km/h 2.0mph /  3.2km/h 59% 0.00in /  0mm 0.0 W/m2
00:33 70.5 °F /  21.4 °C 55.6 °F /  13.1 °C 29.62in /  1002.9hPa Calm   3.0mph /  4.8km/h 59% 0.00in /  0mm 0.0 W/m2
00:39 70.5 °F /  21.4 °C 55.6 °F /  13.1 °C 29.62in /  1002.9hPa SSW 2.9mph /  4.7km/h 5.0mph /  8km/h 59% 0.00in /  0mm 0.0 W/m2
00:45 70.3 °F /  21.3 °C 55.4 °F /  13 °C 29.62in /  1002.9hPa Calm   1.0mph /  1.6km/h 59% 0.00in /  0mm 0.0 W/m2
01:08 70.0 °F /  21.1 °C 55.4 °F /  13 °C 29.62in /  1002.9hPa SSE 2.0mph /  3.2km/h 4.0mph /  6.4km/h 60% 0.00in /  0mm 0.0 W/m2
01:14 69.8 °F /  21 °C 55.2 °F /  12.9 °C 29.61in /  1002.6hPa Calm   2.0mph /  3.2km/h 60% 0.00in /  0mm 0.0 W/m2
01:20 69.6 °F /  20.9 °C 55.0 °F /  12.8 °C 29.61in /  1002.6hPa Calm   2.0mph /  3.2km/h 60% 0.00in /  0mm 0.0 W/m2
01:26 69.6 °F /  20.9 °C 55.0 °F /  12.8 °C 29.60in /  1002.3hPa SSE 0.9mph /  1.4km/h 2.0mph /  3.2km/h 60% 0.00in /  0mm 0.0 W/m2
01:32 69.4 °F /  20.8 °C 54.9 °F /  12.7 °C 29.60in /  1002.3hPa Calm   2.0mph /  3.2km/h 60% 0.00in /  0mm 0.0 W/m2
01:38 69.3 °F /  20.7 °C 55.2 °F /  12.9 °C 29.60in /  1002.3hPa Calm   1.0mph /  1.6km/h 61% 0.00in /  0mm 0.0 W/m2
01:44 69.1 °F /  20.6 °C 55.0 °F /  12.8 °C 29.60in /  1002.3hPa SSW 6.0mph /  9.7km/h 6.0mph /  9.7km/h 61% 0.00in /  0mm 0.0 W/m2
01:50 69.1 °F /  20.6 °C 55.0 °F /  12.8 °C 29.60in /  1002.3hPa SE 0.9mph /  1.4km/h 3.0mph /  4.8km/h 61% 0.00in /  0mm 0.0 W/m2
01:57 68.9 °F /  20.5 °C 55.4 °F /  13 °C 29.60in /  1002.3hPa Calm   1.0mph /  1.6km/h 62% 0.00in /  0mm 0.0 W/m2
02:03 68.7 °F /  20.4 °C 55.2 °F /  12.9 °C 29.59in /  1001.9hPa Calm   3.0mph /  4.8km/h 62% 0.00in /  0mm 0.0 W/m2
02:09 68.7 °F /  20.4 °C 55.2 °F /  12.9 °C 29.59in /  1001.9hPa Calm   1.0mph /  1.6km/h 62% 0.00in /  0mm 0.0 W/m2
02:15 68.5 °F /  20.3 °C 55.0 °F /  12.8 °C 29.59in /  1001.9hPa SSW 0.9mph /  1.4km/h 3.0mph /  4.8km/h 62% 0.00in /  0mm 0.0 W/m2
02:21 68.4 °F /  20.2 °C 54.9 °F /  12.7 °C 29.59in /  1001.9hPa SE 2.0mph /  3.2km/h 4.0mph /  6.4km/h 62% 0.00in /  0mm 0.0 W/m2
02:27 68.4 °F /  20.2 °C 54.9 °F /  12.7 °C 29.59in /  1001.9hPa SE 4.0mph /  6.4km/h 6.0mph /  9.7km/h 62% 0.00in /  0mm 0.0 W/m2
02:33 68.4 °F /  20.2 °C 54.9 °F /  12.7 °C 29.59in /  1001.9hPa SSE 2.9mph /  4.7km/h 5.0mph /  8km/h 62% 0.00in /  0mm 0.0 W/m2
02:40 68.4 °F /  20.2 °C 55.2 °F /  12.9 °C 29.58in /  1001.6hPa South 0.9mph /  1.4km/h 5.0mph /  8km/h 63% 0.00in /  0mm 0.0 W/m2
02:46 68.2 °F /  20.1 °C 55.0 °F /  12.8 °C 29.57in /  1001.2hPa Calm   3.0mph /  4.8km/h 63% 0.00in /  0mm 0.0 W/m2
02:52 68.0 °F /  20 °C 54.9 °F /  12.7 °C 29.57in /  1001.2hPa Calm   2.0mph /  3.2km/h 63% 0.00in /  0mm 0.0 W/m2
02:58 67.8 °F /  19.9 °C 54.7 °F /  12.6 °C 29.57in /  1001.2hPa Calm   3.0mph /  4.8km/h 63% 0.00in /  0mm 0.0 W/m2
03:04 67.8 °F /  19.9 °C 54.7 °F /  12.6 °C 29.57in /  1001.2hPa Calm   4.0mph /  6.4km/h 63% 0.00in /  0mm 0.0 W/m2
03:10 67.8 °F /  19.9 °C 54.7 °F /  12.6 °C 29.57in /  1001.2hPa SE 0.9mph /  1.4km/h 2.0mph /  3.2km/h 63% 0.00in /  0mm 0.0 W/m2
03:16 67.6 °F /  19.8 °C 54.7 °F /  12.6 °C 29.57in /  1001.2hPa SSE 2.0mph /  3.2km/h 4.0mph /  6.4km/h 63% 0.00in /  0mm 0.0 W/m2
03:22 67.6 °F /  19.8 °C 55.0 °F /  12.8 °C 29.57in /  1001.2hPa ESE 0.9mph /  1.4km/h 2.0mph /  3.2km/h 64% 0.00in /  0mm 0.0 W/m2
03:28 67.5 °F /  19.7 °C 54.9 °F /  12.7 °C 29.57in /  1001.2hPa Calm   3.0mph /  4.8km/h 64% 0.00in /  0mm 0.0 W/m2
03:35 67.5 °F /  19.7 °C 54.5 °F /  12.5 °C 29.57in /  1001.2hPa Calm   3.0mph /  4.8km/h 63% 0.00in /  0mm 0.0 W/m2
03:41 67.5 °F /  19.7 °C 54.5 °F /  12.5 °C 29.57in /  1001.2hPa South 0.9mph /  1.4km/h 1.0mph /  1.6km/h 63% 0.00in /  0mm 0.0 W/m2
03:47 67.5 °F /  19.7 °C 54.9 °F /  12.7 °C 29.57in /  1001.2hPa South 2.0mph /  3.2km/h 2.0mph /  3.2km/h 64% 0.00in /  0mm 0.0 W/m2
03:53 67.3 °F /  19.6 °C 54.7 °F /  12.6 °C 29.56in /  1000.9hPa Calm   1.0mph /  1.6km/h 64% 0.00in /  0mm 0.0 W/m2
03:59 67.3 °F /  19.6 °C 54.7 °F /  12.6 °C 29.56in /  1000.9hPa Calm   1.0mph /  1.6km/h 64% 0.00in /  0mm 0.0 W/m2
04:05 66.9 °F /  19.4 °C 54.3 °F /  12.4 °C 29.57in /  1001.2hPa Calm   1.0mph /  1.6km/h 64% 0.00in /  0mm 0.0 W/m2
04:12 66.9 °F /  19.4 °C 54.3 °F /  12.4 °C 29.57in /  1001.2hPa Calm     64% 0.00in /  0mm 0.0 W/m2
04:18 66.7 °F /  19.3 °C 55.0 °F /  12.8 °C 29.57in /  1001.2hPa Calm     66% 0.00in /  0mm 0.0 W/m2
04:24 66.6 °F /  19.2 °C 54.9 °F /  12.7 °C 29.57in /  1001.2hPa Calm   2.0mph /  3.2km/h 66% 0.00in /  0mm 0.0 W/m2
04:30 66.4 °F /  19.1 °C 54.7 °F /  12.6 °C 29.57in /  1001.2hPa Calm   1.0mph /  1.6km/h 66% 0.00in /  0mm 0.0 W/m2
04:36 66.2 °F /  19 °C 54.5 °F /  12.5 °C 29.56in /  1000.9hPa Calm     66% 0.00in /  0mm 0.0 W/m2
04:42 66.0 °F /  18.9 °C 54.3 °F /  12.4 °C 29.56in /  1000.9hPa Calm     66% 0.00in /  0mm 0.0 W/m2
04:48 65.8 °F /  18.8 °C 54.5 °F /  12.5 °C 29.56in /  1000.9hPa Calm     67% 0.00in /  0mm 0.0 W/m2
04:54 65.8 °F /  18.8 °C 54.5 °F /  12.5 °C 29.56in /  1000.9hPa Calm     67% 0.00in /  0mm 0.0 W/m2
05:00 65.7 °F /  18.7 °C 54.9 °F /  12.7 °C 29.56in /  1000.9hPa Calm     68% 0.00in /  0mm 0.0 W/m2
05:07 65.5 °F /  18.6 °C 54.7 °F /  12.6 °C 29.56in /  1000.9hPa Calm     68% 0.00in /  0mm 0.0 W/m2
05:13 65.5 °F /  18.6 °C 54.7 °F /  12.6 °C 29.56in /  1000.9hPa Calm     68% 0.00in /  0mm 0.0 W/m2
05:19 65.3 °F /  18.5 °C 54.5 °F /  12.5 °C 29.56in /  1000.9hPa Calm     68% 0.00in /  0mm 0.0 W/m2
05:25 65.1 °F /  18.4 °C 54.7 °F /  12.6 °C 29.56in /  1000.9hPa Calm     69% 0.00in /  0mm 0.0 W/m2
05:31 65.1 °F /  18.4 °C 54.7 °F /  12.6 °C 29.56in /  1000.9hPa Calm   1.0mph /  1.6km/h 69% 0.00in /  0mm 0.0 W/m2
05:37 65.1 °F /  18.4 °C 54.7 °F /  12.6 °C 29.56in /  1000.9hPa Calm     69% 0.00in /  0mm 0.0 W/m2
05:43 65.1 °F /  18.4 °C 55.0 °F /  12.8 °C 29.56in /  1000.9hPa Calm     70% 0.00in /  0mm 0.0 W/m2
05:49 65.1 °F /  18.4 °C 55.4 °F /  13 °C 29.56in /  1000.9hPa Calm     71% 0.00in /  0mm 0.0 W/m2
05:56 65.1 °F /  18.4 °C 55.0 °F /  12.8 °C 29.56in /  1000.9hPa Calm     70% 0.00in /  0mm 0.0 W/m2
06:02 65.1 °F /  18.4 °C 55.0 °F /  12.8 °C 29.56in /  1000.9hPa Calm     70% 0.00in /  0mm 0.0 W/m2
06:08 65.1 °F /  18.4 °C 54.7 °F /  12.6 °C 29.56in /  1000.9hPa North 2.0mph /  3.2km/h 4.0mph /  6.4km/h 69% 0.00in /  0mm 0.0 W/m2
06:14 65.5 °F /  18.6 °C 54.3 °F /  12.4 °C 29.56in /  1000.9hPa Calm   1.0mph /  1.6km/h 67% 0.00in /  0mm 0.0 W/m2
06:20 65.7 °F /  18.7 °C 54.0 °F /  12.2 °C 29.56in /  1000.9hPa Calm   1.0mph /  1.6km/h 66% 0.00in /  0mm 0.0 W/m2
06:26 65.8 °F /  18.8 °C 54.1 °F /  12.3 °C 29.56in /  1000.9hPa West 0.9mph /  1.4km/h 2.0mph /  3.2km/h 66% 0.00in /  0mm 7.0 W/m2
06:32 66.0 °F /  18.9 °C 54.0 °F /  12.2 °C 29.56in /  1000.9hPa Calm   1.0mph /  1.6km/h 65% 0.00in /  0mm 12.0 W/m2
06:38 66.2 °F /  19 °C 53.6 °F /  12 °C 29.56in /  1000.9hPa Calm   4.0mph /  6.4km/h 64% 0.00in /  0mm 19.0 W/m2
06:44 66.4 °F /  19.1 °C 54.3 °F /  12.4 °C 29.57in /  1001.2hPa WSW 0.9mph /  1.4km/h 1.0mph /  1.6km/h 65% 0.00in /  0mm 26.0 W/m2
06:50 66.6 °F /  19.2 °C 54.5 °F /  12.5 °C 29.57in /  1001.2hPa WSW 2.0mph /  3.2km/h 3.0mph /  4.8km/h 65% 0.00in /  0mm 30.0 W/m2
06:56 66.6 °F /  19.2 °C 54.5 °F /  12.5 °C 29.57in /  1001.2hPa Calm   1.0mph /  1.6km/h 65% 0.00in /  0mm 42.0 W/m2
07:02 66.7 °F /  19.3 °C 54.1 °F /  12.3 °C 29.57in /  1001.2hPa Calm   3.0mph /  4.8km/h 64% 0.00in /  0mm 58.0 W/m2
07:08 66.9 °F /  19.4 °C 54.3 °F /  12.4 °C 29.57in /  1001.2hPa West 2.0mph /  3.2km/h 2.0mph /  3.2km/h 64% 0.00in /  0mm 53.0 W/m2
07:14 67.1 °F /  19.5 °C 54.5 °F /  12.5 °C 29.57in /  1001.2hPa Calm   1.0mph /  1.6km/h 64% 0.00in /  0mm 65.0 W/m2
07:21 67.3 °F /  19.6 °C 54.7 °F /  12.6 °C 29.57in /  1001.2hPa Calm   2.0mph /  3.2km/h 64% 0.00in /  0mm 97.0 W/m2
07:27 67.5 °F /  19.7 °C 54.5 °F /  12.5 °C 29.57in /  1001.2hPa Calm   2.0mph /  3.2km/h 63% 0.00in /  0mm 88.0 W/m2
07:33 67.6 °F /  19.8 °C 54.1 °F /  12.3 °C 29.57in /  1001.2hPa WSW 2.9mph /  4.7km/h 5.0mph /  8km/h 62% 0.00in /  0mm 83.0 W/m2
07:39 67.8 °F /  19.9 °C 54.0 °F /  12.2 °C 29.57in /  1001.2hPa South 2.0mph /  3.2km/h 4.0mph /  6.4km/h 61% 0.00in /  0mm 86.0 W/m2
07:45 67.8 °F /  19.9 °C 54.0 °F /  12.2 °C 29.57in /  1001.2hPa Calm   2.0mph /  3.2km/h 61% 0.00in /  0mm 105.0 W/m2
07:51 68.0 °F /  20 °C 54.0 °F /  12.2 °C 29.57in /  1001.2hPa Calm   3.0mph /  4.8km/h 61% 0.00in /  0mm 139.0 W/m2
07:57 68.2 °F /  20.1 °C 54.1 °F /  12.3 °C 29.58in /  1001.6hPa Calm     61% 0.00in /  0mm 188.0 W/m2
08:03 68.4 °F /  20.2 °C 54.3 °F /  12.4 °C 29.58in /  1001.6hPa Calm   1.0mph /  1.6km/h 61% 0.00in /  0mm 227.0 W/m2
08:09 68.9 °F /  20.5 °C 54.5 °F /  12.5 °C 29.58in /  1001.6hPa Calm   5.0mph /  8km/h 60% 0.00in /  0mm 272.0 W/m2
08:15 69.6 °F /  20.9 °C 54.7 °F /  12.6 °C 29.58in /  1001.6hPa WSW 0.9mph /  1.4km/h 4.0mph /  6.4km/h 59% 0.00in /  0mm 582.0 W/m2
08:21 70.5 °F /  21.4 °C 55.0 °F /  12.8 °C 29.58in /  1001.6hPa WSW 0.9mph /  1.4km/h 4.0mph /  6.4km/h 58% 0.00in /  0mm 571.0 W/m2
08:27 71.6 °F /  22 °C 55.0 °F /  12.8 °C 29.58in /  1001.6hPa SE 6.9mph /  11.1km/h 7.0mph /  11.3km/h 56% 0.00in /  0mm 585.0 W/m2
08:33 72.3 °F /  22.4 °C 55.2 °F /  12.9 °C 29.59in /  1001.9hPa SSE 2.0mph /  3.2km/h 8.0mph /  12.9km/h 55% 0.00in /  0mm 462.0 W/m2
08:39 72.1 °F /  22.3 °C 54.5 °F /  12.5 °C 29.58in /  1001.6hPa ESE 4.9mph /  7.9km/h 6.0mph /  9.7km/h 54% 0.00in /  0mm 341.0 W/m2
08:45 72.5 °F /  22.5 °C 54.9 °F /  12.7 °C 29.58in /  1001.6hPa SE 4.9mph /  7.9km/h 9.0mph /  14.5km/h 54% 0.00in /  0mm 309.0 W/m2
08:51 72.7 °F /  22.6 °C 55.0 °F /  12.8 °C 29.58in /  1001.6hPa SSW 4.9mph /  7.9km/h 7.0mph /  11.3km/h 54% 0.00in /  0mm 454.0 W/m2
08:57 72.9 °F /  22.7 °C 54.7 °F /  12.6 °C 29.58in /  1001.6hPa SSE 4.0mph /  6.4km/h 5.0mph /  8km/h 53% 0.00in /  0mm 601.0 W/m2
09:03 73.6 °F /  23.1 °C 55.4 °F /  13 °C 29.58in /  1001.6hPa SSE 8.1mph /  13km/h 8.1mph /  13km/h 53% 0.00in /  0mm 633.0 W/m2
09:09 74.1 °F /  23.4 °C 54.9 °F /  12.7 °C 29.58in /  1001.6hPa SSW 0.9mph /  1.4km/h 11.0mph /  17.7km/h 51% 0.00in /  0mm 652.0 W/m2
09:15 74.8 °F /  23.8 °C 55.6 °F /  13.1 °C 29.58in /  1001.6hPa ESE 4.9mph /  7.9km/h 6.0mph /  9.7km/h 51% 0.00in /  0mm 650.0 W/m2
09:21 75.4 °F /  24.1 °C 55.4 °F /  13 °C 29.57in /  1001.2hPa SSE 4.9mph /  7.9km/h 9.0mph /  14.5km/h 50% 0.00in /  0mm 687.0 W/m2
09:27 75.7 °F /  24.3 °C 55.2 °F /  12.9 °C 29.58in /  1001.6hPa SW 2.9mph /  4.7km/h 6.0mph /  9.7km/h 49% 0.00in /  0mm 691.0 W/m2
09:33 75.9 °F /  24.4 °C 55.4 °F /  13 °C 29.57in /  1001.2hPa SSW 2.9mph /  4.7km/h 7.0mph /  11.3km/h 49% 0.00in /  0mm 719.0 W/m2
09:39 76.1 °F /  24.5 °C 55.6 °F /  13.1 °C 29.57in /  1001.2hPa SW 0.9mph /  1.4km/h 5.0mph /  8km/h 49% 0.00in /  0mm 744.0 W/m2
09:45 76.3 °F /  24.6 °C 54.5 °F /  12.5 °C 29.57in /  1001.2hPa Calm   6.0mph /  9.7km/h 47% 0.00in /  0mm 761.0 W/m2
09:51 76.3 °F /  24.6 °C 55.2 °F /  12.9 °C 29.57in /  1001.2hPa ESE 0.9mph /  1.4km/h 4.0mph /  6.4km/h 48% 0.00in /  0mm 779.0 W/m2
09:57 76.6 °F /  24.8 °C 55.4 °F /  13 °C 29.57in /  1001.2hPa SSW 4.9mph /  7.9km/h 8.0mph /  12.9km/h 48% 0.00in /  0mm 793.0 W/m2
10:03 76.8 °F /  24.9 °C 55.6 °F /  13.1 °C 29.57in /  1001.2hPa WSW 4.0mph /  6.4km/h 5.0mph /  8km/h 48% 0.00in /  0mm 796.0 W/m2
10:09 77.4 °F /  25.2 °C 55.6 °F /  13.1 °C 29.57in /  1001.2hPa SSE 4.0mph /  6.4km/h 7.0mph /  11.3km/h 47% 0.00in /  0mm 826.0 W/m2
10:15 78.1 °F /  25.6 °C 55.0 °F /  12.8 °C 29.57in /  1001.2hPa SSE 2.0mph /  3.2km/h 4.0mph /  6.4km/h 45% 0.00in /  0mm 849.0 W/m2
10:21 79.0 °F /  26.1 °C 55.2 °F /  12.9 °C 29.57in /  1001.2hPa South 2.0mph /  3.2km/h 6.0mph /  9.7km/h 44% 0.00in /  0mm 868.0 W/m2
10:27 79.5 °F /  26.4 °C 55.8 °F /  13.2 °C 29.57in /  1001.2hPa SW 2.9mph /  4.7km/h 6.0mph /  9.7km/h 44% 0.00in /  0mm 881.0 W/m2
10:33 79.5 °F /  26.4 °C 55.0 °F /  12.8 °C 29.57in /  1001.2hPa East 2.9mph /  4.7km/h 3.0mph /  4.8km/h 43% 0.00in /  0mm 905.0 W/m2
10:39 79.9 °F /  26.6 °C 55.4 °F /  13 °C 29.57in /  1001.2hPa Calm   5.0mph /  8km/h 43% 0.00in /  0mm 935.0 W/m2
10:45 79.9 °F /  26.6 °C 55.4 °F /  13 °C 29.56in /  1000.9hPa North 2.0mph /  3.2km/h 3.0mph /  4.8km/h 43% 0.00in /  0mm 951.0 W/m2
10:51 80.4 °F /  26.9 °C 55.2 °F /  12.9 °C 29.56in /  1000.9hPa SW 0.9mph /  1.4km/h 5.0mph /  8km/h 42% 0.00in /  0mm 951.0 W/m2
10:57 81.0 °F /  27.2 °C 55.0 °F /  12.8 °C 29.55in /  1000.6hPa SSW 4.9mph /  7.9km/h 5.0mph /  8km/h 41% 0.00in /  0mm 977.0 W/m2
11:03 81.3 °F /  27.4 °C 55.4 °F /  13 °C 29.55in /  1000.6hPa SE 2.9mph /  4.7km/h 6.0mph /  9.7km/h 41% 0.00in /  0mm 889.0 W/m2
11:09 82.0 °F /  27.8 °C 54.7 °F /  12.6 °C 29.55in /  1000.6hPa SSE 2.0mph /  3.2km/h 8.0mph /  12.9km/h 39% 0.00in /  0mm 962.0 W/m2
11:15 82.6 °F /  28.1 °C 54.3 °F /  12.4 °C 29.55in /  1000.6hPa ESE 4.0mph /  6.4km/h 4.0mph /  6.4km/h 38% 0.00in /  0mm 914.0 W/m2
11:21 83.1 °F /  28.4 °C 54.1 °F /  12.3 °C 29.55in /  1000.6hPa SSW 0.9mph /  1.4km/h 5.0mph /  8km/h 37% 0.00in /  0mm 956.0 W/m2
11:27 82.9 °F /  28.3 °C 54.0 °F /  12.2 °C 29.54in /  1000.2hPa Calm   2.0mph /  3.2km/h 37% 0.00in /  0mm 302.0 W/m2
11:33 82.2 °F /  27.9 °C 53.4 °F /  11.9 °C 29.54in /  1000.2hPa WSW 2.0mph /  3.2km/h 8.0mph /  12.9km/h 37% 0.00in /  0mm 747.0 W/m2
11:39 82.2 °F /  27.9 °C 54.1 °F /  12.3 °C 29.54in /  1000.2hPa SW 2.0mph /  3.2km/h 5.0mph /  8km/h 38% 0.00in /  0mm 1116.0 W/m2
11:45 82.6 °F /  28.1 °C 53.6 °F /  12 °C 29.54in /  1000.2hPa WSW 2.0mph /  3.2km/h 2.0mph /  3.2km/h 37% 0.00in /  0mm 406.0 W/m2
11:51 82.6 °F /  28.1 °C 54.3 °F /  12.4 °C 29.54in /  1000.2hPa SSW 2.9mph /  4.7km/h 10.0mph /  16.1km/h 38% 0.00in /  0mm 932.0 W/m2
11:57 83.1 °F /  28.4 °C 53.4 °F /  11.9 °C 29.54in /  1000.2hPa SW 2.9mph /  4.7km/h 6.0mph /  9.7km/h 36% 0.00in /  0mm 960.0 W/m2
12:03 83.5 °F /  28.6 °C 52.2 °F /  11.2 °C 29.54in /  1000.2hPa Calm   6.0mph /  9.7km/h 34% 0.00in /  0mm 355.0 W/m2
12:09 82.8 °F /  28.2 °C 52.3 °F /  11.3 °C 29.54in /  1000.2hPa NW 2.0mph /  3.2km/h 6.0mph /  9.7km/h 35% 0.00in /  0mm 290.0 W/m2
12:15 82.0 °F /  27.8 °C 52.5 °F /  11.4 °C 29.53in /  999.9hPa SSE 0.9mph /  1.4km/h 7.0mph /  11.3km/h 36% 0.00in /  0mm 218.0 W/m2
12:21 81.7 °F /  27.6 °C 52.2 °F /  11.2 °C 29.53in /  999.9hPa Calm   7.0mph /  11.3km/h 36% 0.00in /  0mm 149.0 W/m2
12:27 81.0 °F /  27.2 °C 52.9 °F /  11.6 °C 29.53in /  999.9hPa SSW 2.0mph /  3.2km/h 8.0mph /  12.9km/h 38% 0.00in /  0mm 118.0 W/m2
12:33 80.6 °F /  27 °C 52.7 °F /  11.5 °C 29.53in /  999.9hPa WSW 2.0mph /  3.2km/h 4.0mph /  6.4km/h 38% 0.00in /  0mm 105.0 W/m2
12:39 80.2 °F /  26.8 °C 52.3 °F /  11.3 °C 29.53in /  999.9hPa SSW 4.0mph /  6.4km/h 7.0mph /  11.3km/h 38% 0.00in /  0mm 93.0 W/m2
12:45 79.9 °F /  26.6 °C 52.7 °F /  11.5 °C 29.53in /  999.9hPa WSW 2.9mph /  4.7km/h 6.0mph /  9.7km/h 39% 0.00in /  0mm 91.0 W/m2
12:51 79.5 °F /  26.4 °C 53.1 °F /  11.7 °C 29.53in /  999.9hPa WSW 0.9mph /  1.4km/h 6.0mph /  9.7km/h 40% 0.00in /  0mm 104.0 W/m2
12:57 79.3 °F /  26.3 °C 52.9 °F /  11.6 °C 29.53in /  999.9hPa WSW 2.0mph /  3.2km/h 5.0mph /  8km/h 40% 0.00in /  0mm 118.0 W/m2
13:03 79.2 °F /  26.2 °C 53.4 °F /  11.9 °C 29.52in /  999.5hPa Calm   4.0mph /  6.4km/h 41% 0.00in /  0mm 148.0 W/m2
13:09 79.3 °F /  26.3 °C 53.6 °F /  12 °C 29.52in /  999.5hPa South 2.0mph /  3.2km/h 2.0mph /  3.2km/h 41% 0.00in /  0mm 139.0 W/m2
13:15 79.3 °F /  26.3 °C 53.6 °F /  12 °C 29.52in /  999.5hPa Calm   5.0mph /  8km/h 41% 0.00in /  0mm 155.0 W/m2
13:21 79.5 °F /  26.4 °C 53.8 °F /  12.1 °C 29.52in /  999.5hPa SE 2.9mph /  4.7km/h 5.0mph /  8km/h 41% 0.00in /  0mm 158.0 W/m2
13:27 79.5 °F /  26.4 °C 53.8 °F /  12.1 °C 29.52in /  999.5hPa SSE 4.0mph /  6.4km/h 4.0mph /  6.4km/h 41% 0.00in /  0mm 160.0 W/m2
13:31 79.9 °F /  26.6 °C 53.4 °F /  11.9 °C 29.52in /  999.5hPa Calm   2.0mph /  3.2km/h 40% 0.00in /  0mm 162.0 W/m2
13:37 79.9 °F /  26.6 °C 53.4 °F /  11.9 °C 29.52in /  999.5hPa SSW 2.9mph /  4.7km/h 5.0mph /  8km/h 40% 0.00in /  0mm 169.0 W/m2
13:43 80.1 °F /  26.7 °C 53.6 °F /  12 °C 29.51in /  999.2hPa SSE 2.0mph /  3.2km/h 6.0mph /  9.7km/h 40% 0.00in /  0mm 181.0 W/m2
13:49 80.1 °F /  26.7 °C 53.6 °F /  12 °C 29.51in /  999.2hPa Calm   3.0mph /  4.8km/h 40% 0.00in /  0mm 197.0 W/m2
13:55 80.2 °F /  26.8 °C 53.1 °F /  11.7 °C 29.51in /  999.2hPa SSE 6.0mph /  9.7km/h 7.0mph /  11.3km/h 39% 0.00in /  0mm 209.0 W/m2
14:01 80.2 °F /  26.8 °C 53.1 °F /  11.7 °C 29.51in /  999.2hPa SSE 2.0mph /  3.2km/h 4.0mph /  6.4km/h 39% 0.00in /  0mm 199.0 W/m2
14:07 80.4 °F /  26.9 °C 53.2 °F /  11.8 °C 29.51in /  999.2hPa SE 2.9mph /  4.7km/h 7.0mph /  11.3km/h 39% 0.00in /  0mm 167.0 W/m2
14:13 80.4 °F /  26.9 °C 52.5 °F /  11.4 °C 29.51in /  999.2hPa East 0.9mph /  1.4km/h 4.0mph /  6.4km/h 38% 0.00in /  0mm 155.0 W/m2
14:19 80.4 °F /  26.9 °C 53.2 °F /  11.8 °C 29.51in /  999.2hPa East 2.0mph /  3.2km/h 6.0mph /  9.7km/h 39% 0.00in /  0mm 144.0 W/m2
14:25 80.4 °F /  26.9 °C 53.2 °F /  11.8 °C 29.51in /  999.2hPa SE 4.9mph /  7.9km/h 5.0mph /  8km/h 39% 0.00in /  0mm 156.0 W/m2
14:31 80.4 °F /  26.9 °C 53.2 °F /  11.8 °C 29.50in /  998.9hPa Calm   4.0mph /  6.4km/h 39% 0.00in /  0mm 171.0 W/m2
14:37 80.4 °F /  26.9 °C 53.2 °F /  11.8 °C 29.50in /  998.9hPa NE 0.9mph /  1.4km/h 3.0mph /  4.8km/h 39% 0.00in /  0mm 188.0 W/m2
14:44 80.4 °F /  26.9 °C 54.0 °F /  12.2 °C 29.50in /  998.9hPa East 0.9mph /  1.4km/h 3.0mph /  4.8km/h 40% 0.00in /  0mm 165.0 W/m2
14:50 80.4 °F /  26.9 °C 53.2 °F /  11.8 °C 29.49in /  998.5hPa Calm   3.0mph /  4.8km/h 39% 0.00in /  0mm 146.0 W/m2
14:56 80.4 °F /  26.9 °C 54.0 °F /  12.2 °C 29.49in /  998.5hPa Calm   2.0mph /  3.2km/h 40% 0.00in /  0mm 120.0 W/m2
15:02 80.4 °F /  26.9 °C 54.0 °F /  12.2 °C 29.49in /  998.5hPa ESE 2.9mph /  4.7km/h 3.0mph /  4.8km/h 40% 0.00in /  0mm 83.0 W/m2
15:08 80.2 °F /  26.8 °C 53.1 °F /  11.7 °C 29.50in /  998.9hPa Calm     39% 0.00in /  0mm 60.0 W/m2
15:16 79.9 °F /  26.6 °C 54.1 °F /  12.3 °C 29.50in /  998.9hPa SW 2.9mph /  4.7km/h 6.0mph /  9.7km/h 41% 0.00in /  0mm 47.0 W/m2
15:22 79.3 °F /  26.3 °C 54.9 °F /  12.7 °C 29.50in /  998.9hPa Calm   8.0mph /  12.9km/h 43% 0.00in /  0mm 58.0 W/m2
15:36 78.1 °F /  25.6 °C 57.4 °F /  14.1 °C 29.50in /  998.9hPa Calm   1.0mph /  1.6km/h 49% 0.00in /  0mm 123.0 W/m2
15:42 77.5 °F /  25.3 °C 56.3 °F /  13.5 °C 29.50in /  998.9hPa West 2.0mph /  3.2km/h 4.0mph /  6.4km/h 48% 0.00in /  0mm 155.0 W/m2
15:50 77.4 °F /  25.2 °C 54.3 °F /  12.4 °C 29.50in /  998.9hPa SW 0.9mph /  1.4km/h 8.0mph /  12.9km/h 45% 0.00in /  0mm 176.0 W/m2
15:57 77.4 °F /  25.2 °C 54.3 °F /  12.4 °C 29.50in /  998.9hPa SSE 2.0mph /  3.2km/h 3.0mph /  4.8km/h 45% 0.00in /  0mm 167.0 W/m2
16:03 77.5 °F /  25.3 °C 56.8 °F /  13.8 °C 29.49in /  998.5hPa East 2.9mph /  4.7km/h 9.0mph /  14.5km/h 49% 0.00in /  0mm 167.0 W/m2
16:09 77.2 °F /  25.1 °C 57.0 °F /  13.9 °C 29.49in /  998.5hPa Calm   6.0mph /  9.7km/h 50% 0.00in /  0mm 167.0 W/m2
16:15 76.8 °F /  24.9 °C 57.4 °F /  14.1 °C 29.49in /  998.5hPa ENE 2.0mph /  3.2km/h 6.0mph /  9.7km/h 51% 0.00in /  0mm 139.0 W/m2
16:21 76.6 °F /  24.8 °C 57.2 °F /  14 °C 29.48in /  998.2hPa NE 0.9mph /  1.4km/h 5.0mph /  8km/h 51% 0.00in /  0mm 125.0 W/m2
16:27 76.3 °F /  24.6 °C 57.9 °F /  14.4 °C 29.48in /  998.2hPa North 4.9mph /  7.9km/h 7.0mph /  11.3km/h 53% 0.00in /  0mm 97.0 W/m2
16:33 75.7 °F /  24.3 °C 56.8 °F /  13.8 °C 29.48in /  998.2hPa ENE 0.9mph /  1.4km/h 6.0mph /  9.7km/h 52% 0.00in /  0mm 81.0 W/m2
16:40 75.4 °F /  24.1 °C 57.0 °F /  13.9 °C 29.48in /  998.2hPa NNW 4.0mph /  6.4km/h 5.0mph /  8km/h 53% 0.00in /  0mm 93.0 W/m2
16:46 75.2 °F /  24 °C 56.8 °F /  13.8 °C 29.49in /  998.5hPa North 0.9mph /  1.4km/h 4.0mph /  6.4km/h 53% 0.00in /  0mm 116.0 W/m2
16:52 75.4 °F /  24.1 °C 57.0 °F /  13.9 °C 29.49in /  998.5hPa Calm   7.0mph /  11.3km/h 53% 0.00in /  0mm 148.0 W/m2
16:58 75.4 °F /  24.1 °C 57.0 °F /  13.9 °C 29.49in /  998.5hPa Calm   2.0mph /  3.2km/h 53% 0.00in /  0mm 148.0 W/m2
17:04 75.6 °F /  24.2 °C 58.3 °F /  14.6 °C 29.50in /  998.9hPa WNW 2.9mph /  4.7km/h 3.0mph /  4.8km/h 55% 0.00in /  0mm 111.0 W/m2
17:10 74.8 °F /  23.8 °C 60.1 °F /  15.6 °C 29.49in /  998.5hPa NNW 0.9mph /  1.4km/h 7.0mph /  11.3km/h 60% 0.00in /  0mm 116.0 W/m2
17:16 73.6 °F /  23.1 °C 60.3 °F /  15.7 °C 29.49in /  998.5hPa Calm   4.0mph /  6.4km/h 63% 0.00in /  0mm 121.0 W/m2
17:22 72.5 °F /  22.5 °C 60.4 °F /  15.8 °C 29.49in /  998.5hPa NW 0.9mph /  1.4km/h 7.0mph /  11.3km/h 66% 0.00in /  0mm 123.0 W/m2
17:28 72.0 °F /  22.2 °C 59.5 °F /  15.3 °C 29.49in /  998.5hPa Calm   2.0mph /  3.2km/h 65% 0.00in /  0mm 123.0 W/m2
17:35 71.8 °F /  22.1 °C 59.7 °F /  15.4 °C 29.50in /  998.9hPa Calm     66% 0.00in /  0mm 127.0 W/m2
17:41 72.0 °F /  22.2 °C 61.2 °F /  16.2 °C 29.51in /  999.2hPa Calm   5.0mph /  8km/h 69% 0.00in /  0mm 107.0 W/m2
17:47 72.0 °F /  22.2 °C 60.4 °F /  15.8 °C 29.51in /  999.2hPa Calm     67% 0.00in /  0mm 93.0 W/m2
17:53 72.1 °F /  22.3 °C 60.6 °F /  15.9 °C 29.51in /  999.2hPa NNW 0.9mph /  1.4km/h 2.0mph /  3.2km/h 67% 0.00in /  0mm 81.0 W/m2
17:59 72.1 °F /  22.3 °C 59.4 °F /  15.2 °C 29.51in /  999.2hPa Calm   1.0mph /  1.6km/h 64% 0.00in /  0mm 69.0 W/m2
18:05 72.3 °F /  22.4 °C 58.1 °F /  14.5 °C 29.52in /  999.5hPa Calm   1.0mph /  1.6km/h 61% 0.00in /  0mm 49.0 W/m2
18:12 72.3 °F /  22.4 °C 57.7 °F /  14.3 °C 29.52in /  999.5hPa Calm     60% 0.00in /  0mm 33.0 W/m2
18:18 72.7 °F /  22.6 °C 57.6 °F /  14.2 °C 29.52in /  999.5hPa Calm     59% 0.00in /  0mm 37.0 W/m2
18:24 72.7 °F /  22.6 °C 57.9 °F /  14.4 °C 29.52in /  999.5hPa Calm     60% 0.00in /  0mm 49.0 W/m2
18:30 72.9 °F /  22.7 °C 57.7 °F /  14.3 °C 29.53in /  999.9hPa Calm   1.0mph /  1.6km/h 59% 0.00in /  0mm 42.0 W/m2
18:36 73.0 °F /  22.8 °C 57.9 °F /  14.4 °C 29.53in /  999.9hPa Calm   2.0mph /  3.2km/h 59% 0.00in /  0mm 30.0 W/m2
18:42 73.2 °F /  22.9 °C 57.6 °F /  14.2 °C 29.53in /  999.9hPa NNE 0.9mph /  1.4km/h 3.0mph /  4.8km/h 58% 0.00in /  0mm 23.0 W/m2
18:48 73.2 °F /  22.9 °C 57.6 °F /  14.2 °C 29.54in /  1000.2hPa Calm   2.0mph /  3.2km/h 58% 0.00in /  0mm 26.0 W/m2
18:55 73.2 °F /  22.9 °C 57.6 °F /  14.2 °C 29.54in /  1000.2hPa Calm   1.0mph /  1.6km/h 58% 0.00in /  0mm 25.0 W/m2
19:01 73.4 °F /  23 °C 58.6 °F /  14.8 °C 29.54in /  1000.2hPa NE 0.9mph /  1.4km/h 1.0mph /  1.6km/h 60% 0.00in /  0mm 25.0 W/m2
19:07 73.4 °F /  23 °C 58.6 °F /  14.8 °C 29.54in /  1000.2hPa Calm     60% 0.00in /  0mm 30.0 W/m2
19:13 73.6 °F /  23.1 °C 57.9 °F /  14.4 °C 29.54in /  1000.2hPa Calm     58% 0.00in /  0mm 26.0 W/m2
19:19 73.6 °F /  23.1 °C 57.9 °F /  14.4 °C 29.54in /  1000.2hPa Calm     58% 0.00in /  0mm 19.0 W/m2
19:25 73.6 °F /  23.1 °C 58.8 °F /  14.9 °C 29.55in /  1000.6hPa Calm   1.0mph /  1.6km/h 60% 0.00in /  0mm 16.0 W/m2
19:31 73.6 °F /  23.1 °C 58.3 °F /  14.6 °C 29.55in /  1000.6hPa East 0.9mph /  1.4km/h 4.0mph /  6.4km/h 59% 0.00in /  0mm 9.0 W/m2
19:38 73.2 °F /  22.9 °C 58.1 °F /  14.5 °C 29.55in /  1000.6hPa ENE 0.9mph /  1.4km/h 2.0mph /  3.2km/h 59% 0.00in /  0mm 5.0 W/m2
19:44 73.0 °F /  22.8 °C 57.9 °F /  14.4 °C 29.55in /  1000.6hPa Calm   3.0mph /  4.8km/h 59% 0.00in /  0mm 0.0 W/m2
19:50 73.0 °F /  22.8 °C 58.8 °F /  14.9 °C 29.56in /  1000.9hPa Calm   1.0mph /  1.6km/h 61% 0.00in /  0mm 0.0 W/m2
19:56 72.9 °F /  22.7 °C 56.3 °F /  13.5 °C 29.57in /  1001.2hPa WSW 2.0mph /  3.2km/h 2.0mph /  3.2km/h 56% 0.00in /  0mm 0.0 W/m2
20:02 72.7 °F /  22.6 °C 53.4 °F /  11.9 °C 29.57in /  1001.2hPa WNW 2.9mph /  4.7km/h 8.0mph /  12.9km/h 51% 0.00in /  0mm 0.0 W/m2
20:08 72.9 °F /  22.7 °C 53.1 °F /  11.7 °C 29.57in /  1001.2hPa WSW 2.0mph /  3.2km/h 5.0mph /  8km/h 50% 0.00in /  0mm 0.0 W/m2
20:14 72.7 °F /  22.6 °C 52.9 °F /  11.6 °C 29.58in /  1001.6hPa West 2.0mph /  3.2km/h 10.0mph /  16.1km/h 50% 0.00in /  0mm 0.0 W/m2
20:20 72.5 °F /  22.5 °C 52.9 °F /  11.6 °C 29.58in /  1001.6hPa SW 6.9mph /  11.1km/h 10.0mph /  16.1km/h 50% 0.00in /  0mm 0.0 W/m2
20:26 72.1 °F /  22.3 °C 52.5 °F /  11.4 °C 29.58in /  1001.6hPa West 6.0mph /  9.7km/h 7.0mph /  11.3km/h 50% 0.00in /  0mm 0.0 W/m2
20:32 72.0 °F /  22.2 °C 52.9 °F /  11.6 °C 29.58in /  1001.6hPa SW 4.9mph /  7.9km/h 10.0mph /  16.1km/h 51% 0.00in /  0mm 0.0 W/m2
20:39 71.8 °F /  22.1 °C 52.7 °F /  11.5 °C 29.59in /  1001.9hPa WSW 2.9mph /  4.7km/h 7.0mph /  11.3km/h 51% 0.00in /  0mm 0.0 W/m2
20:45 71.4 °F /  21.9 °C 52.9 °F /  11.6 °C 29.59in /  1001.9hPa West 4.9mph /  7.9km/h 5.0mph /  8km/h 52% 0.00in /  0mm 0.0 W/m2
20:51 71.2 °F /  21.8 °C 52.7 °F /  11.5 °C 29.59in /  1001.9hPa WSW 6.9mph /  11.1km/h 8.0mph /  12.9km/h 52% 0.00in /  0mm 0.0 W/m2
20:57 71.1 °F /  21.7 °C 52.5 °F /  11.4 °C 29.59in /  1001.9hPa WSW 2.9mph /  4.7km/h 8.0mph /  12.9km/h 52% 0.00in /  0mm 0.0 W/m2
21:03 70.9 °F /  21.6 °C 52.3 °F /  11.3 °C 29.59in /  1001.9hPa SW 4.0mph /  6.4km/h 9.0mph /  14.5km/h 52% 0.00in /  0mm 0.0 W/m2
21:09 70.9 °F /  21.6 °C 52.9 °F /  11.6 °C 29.59in /  1001.9hPa WNW 0.9mph /  1.4km/h 7.0mph /  11.3km/h 53% 0.00in /  0mm 0.0 W/m2
21:15 70.5 °F /  21.4 °C 52.5 °F /  11.4 °C 29.59in /  1001.9hPa West 2.0mph /  3.2km/h 9.0mph /  14.5km/h 53% 0.00in /  0mm 0.0 W/m2
21:21 70.3 °F /  21.3 °C 52.3 °F /  11.3 °C 29.60in /  1002.3hPa SW 6.9mph /  11.1km/h 8.0mph /  12.9km/h 53% 0.00in /  0mm 0.0 W/m2
21:27 70.2 °F /  21.2 °C 52.2 °F /  11.2 °C 29.60in /  1002.3hPa Calm   5.0mph /  8km/h 53% 0.00in /  0mm 0.0 W/m2
21:34 70.2 °F /  21.2 °C 52.2 °F /  11.2 °C 29.60in /  1002.3hPa South 6.9mph /  11.1km/h 7.0mph /  11.3km/h 53% 0.00in /  0mm 0.0 W/m2
21:40 70.0 °F /  21.1 °C 52.5 °F /  11.4 °C 29.60in /  1002.3hPa West 2.0mph /  3.2km/h 5.0mph /  8km/h 54% 0.00in /  0mm 0.0 W/m2
21:46 70.0 °F /  21.1 °C 52.5 °F /  11.4 °C 29.61in /  1002.6hPa West 2.0mph /  3.2km/h 7.0mph /  11.3km/h 54% 0.00in /  0mm 0.0 W/m2
21:52 70.0 °F /  21.1 °C 52.5 °F /  11.4 °C 29.61in /  1002.6hPa WSW 2.0mph /  3.2km/h 5.0mph /  8km/h 54% 0.00in /  0mm 0.0 W/m2
21:58 70.0 °F /  21.1 °C 52.5 °F /  11.4 °C 29.62in /  1002.9hPa Calm   6.0mph /  9.7km/h 54% 0.00in /  0mm 0.0 W/m2
22:04 70.0 °F /  21.1 °C 52.5 °F /  11.4 °C 29.62in /  1002.9hPa Calm   1.0mph /  1.6km/h 54% 0.00in /  0mm 0.0 W/m2
22:10 70.0 °F /  21.1 °C 52.0 °F /  11.1 °C 29.62in /  1002.9hPa Calm   3.0mph /  4.8km/h 53% 0.00in /  0mm 0.0 W/m2
22:16 70.2 °F /  21.2 °C 52.7 °F /  11.5 °C 29.62in /  1002.9hPa Calm     54% 0.00in /  0mm 0.0 W/m2
22:22 70.2 °F /  21.2 °C 52.7 °F /  11.5 °C 29.63in /  1003.3hPa Calm   1.0mph /  1.6km/h 54% 0.00in /  0mm 0.0 W/m2
22:29 70.2 °F /  21.2 °C 52.7 °F /  11.5 °C 29.63in /  1003.3hPa Calm     54% 0.00in /  0mm 0.0 W/m2
22:35 70.2 °F /  21.2 °C 53.2 °F /  11.8 °C 29.64in /  1003.6hPa Calm   2.0mph /  3.2km/h 55% 0.00in /  0mm 0.0 W/m2
22:41 70.2 °F /  21.2 °C 53.8 °F /  12.1 °C 29.64in /  1003.6hPa ESE 2.0mph /  3.2km/h 2.0mph /  3.2km/h 56% 0.00in /  0mm 0.0 W/m2
22:47 70.2 °F /  21.2 °C 53.2 °F /  11.8 °C 29.64in /  1003.6hPa SSE 2.9mph /  4.7km/h 3.0mph /  4.8km/h 55% 0.00in /  0mm 0.0 W/m2
22:53 70.3 °F /  21.3 °C 52.9 °F /  11.6 °C 29.64in /  1003.6hPa SE 0.9mph /  1.4km/h 5.0mph /  8km/h 54% 0.00in /  0mm 0.0 W/m2
22:59 70.3 °F /  21.3 °C 52.9 °F /  11.6 °C 29.64in /  1003.6hPa Calm   5.0mph /  8km/h 54% 0.00in /  0mm 0.0 W/m2
23:05 70.3 °F /  21.3 °C 52.9 °F /  11.6 °C 29.64in /  1003.6hPa SSW 2.9mph /  4.7km/h 4.0mph /  6.4km/h 54% 0.00in /  0mm 0.0 W/m2
23:11 70.2 °F /  21.2 °C 52.7 °F /  11.5 °C 29.64in /  1003.6hPa SW 2.9mph /  4.7km/h 3.0mph /  4.8km/h 54% 0.00in /  0mm 0.0 W/m2
23:17 70.2 °F /  21.2 °C 52.7 °F /  11.5 °C 29.64in /  1003.6hPa SSW 2.0mph /  3.2km/h 2.0mph /  3.2km/h 54% 0.00in /  0mm 0.0 W/m2
23:23 70.0 °F /  21.1 °C 52.5 °F /  11.4 °C 29.65in /  1003.9hPa Calm   4.0mph /  6.4km/h 54% 0.00in /  0mm 0.0 W/m2
23:30 70.0 °F /  21.1 °C 52.5 °F /  11.4 °C 29.65in /  1003.9hPa Calm   5.0mph /  8km/h 54% 0.00in /  0mm 0.0 W/m2
23:36 69.6 °F /  20.9 °C 52.7 °F /  11.5 °C 29.65in /  1003.9hPa Calm   2.0mph /  3.2km/h 55% 0.00in /  0mm 0.0 W/m2
23:42 69.6 °F /  20.9 °C 52.7 °F /  11.5 °C 29.65in /  1003.9hPa Calm     55% 0.00in /  0mm 0.0 W/m2
23:48 69.6 °F /  20.9 °C 52.7 °F /  11.5 °C 29.65in /  1003.9hPa Calm   2.0mph /  3.2km/h 55% 0.00in /  0mm 0.0 W/m2
23:54 69.6 °F /  20.9 °C 53.2 °F /  11.8 °C 29.65in /  1003.9hPa Calm   2.0mph /  3.2km/h 56% 0.00in /  0mm 0.0 W/m2
Olympia, Windhoek, Namibia
Compliments of Weather Underground - 3 mb